sensor_id;sensor_type;location;lat;lon;timestamp;P1;durP1;ratioP1;P2;durP2;ratioP2
15944;SDS011;30172;48.832;8.732;2023-03-20T00:02:22;0.87;;;0.87;;
15944;SDS011;30172;48.832;8.732;2023-03-20T00:04:48;1.27;;;0.90;;
15944;SDS011;30172;48.832;8.732;2023-03-20T00:07:13;1.10;;;1.00;;
15944;SDS011;30172;48.832;8.732;2023-03-20T00:09:39;2.03;;;1.00;;
15944;SDS011;30172;48.832;8.732;2023-03-20T00:12:04;0.87;;;0.73;;
15944;SDS011;30172;48.832;8.732;2023-03-20T00:14:30;0.73;;;0.73;;
15944;SDS011;30172;48.832;8.732;2023-03-20T00:16:55;0.87;;;0.87;;
15944;SDS011;30172;48.832;8.732;2023-03-20T00:19:22;1.37;;;1.10;;
15944;SDS011;30172;48.832;8.732;2023-03-20T00:21:50;0.90;;;0.90;;
15944;SDS011;30172;48.832;8.732;2023-03-20T00:24:16;1.17;;;1.07;;
15944;SDS011;30172;48.832;8.732;2023-03-20T00:26:42;0.80;;;0.80;;
15944;SDS011;30172;48.832;8.732;2023-03-20T00:29:11;1.33;;;0.90;;
15944;SDS011;30172;48.832;8.732;2023-03-20T00:31:40;0.80;;;0.80;;
15944;SDS011;30172;48.832;8.732;2023-03-20T00:34:10;1.00;;;0.90;;
15944;SDS011;30172;48.832;8.732;2023-03-20T00:36:37;1.10;;;1.00;;
15944;SDS011;30172;48.832;8.732;2023-03-20T00:39:02;1.80;;;1.03;;
15944;SDS011;30172;48.832;8.732;2023-03-20T00:41:29;0.90;;;0.77;;
15944;SDS011;30172;48.832;8.732;2023-03-20T00:43:57;1.43;;;0.83;;
15944;SDS011;30172;48.832;8.732;2023-03-20T00:46:25;0.60;;;0.60;;
15944;SDS011;30172;48.832;8.732;2023-03-20T00:48:50;0.70;;;0.60;;
15944;SDS011;30172;48.832;8.732;2023-03-20T00:51:16;0.83;;;0.80;;
15944;SDS011;30172;48.832;8.732;2023-03-20T00:53:42;0.87;;;0.70;;
15944;SDS011;30172;48.832;8.732;2023-03-20T00:56:14;0.77;;;0.70;;
15944;SDS011;30172;48.832;8.732;2023-03-20T00:58:55;1.17;;;0.63;;
15944;SDS011;30172;48.832;8.732;2023-03-20T01:01:21;0.83;;;0.80;;
15944;SDS011;30172;48.832;8.732;2023-03-20T01:03:47;1.90;;;0.70;;
15944;SDS011;30172;48.832;8.732;2023-03-20T01:06:12;0.60;;;0.60;;
15944;SDS011;30172;48.832;8.732;2023-03-20T01:08:37;0.60;;;0.60;;
15944;SDS011;30172;48.832;8.732;2023-03-20T01:11:03;1.17;;;0.60;;
15944;SDS011;30172;48.832;8.732;2023-03-20T01:13:29;0.60;;;0.60;;
15944;SDS011;30172;48.832;8.732;2023-03-20T01:15:55;0.53;;;0.53;;
15944;SDS011;30172;48.832;8.732;2023-03-20T01:18:22;0.63;;;0.63;;
15944;SDS011;30172;48.832;8.732;2023-03-20T01:20:48;0.70;;;0.70;;
15944;SDS011;30172;48.832;8.732;2023-03-20T01:23:14;1.33;;;0.70;;
15944;SDS011;30172;48.832;8.732;2023-03-20T01:25:40;1.60;;;0.70;;
15944;SDS011;30172;48.832;8.732;2023-03-20T01:28:19;0.97;;;0.70;;
15944;SDS011;30172;48.832;8.732;2023-03-20T01:30:46;1.20;;;0.80;;
15944;SDS011;30172;48.832;8.732;2023-03-20T01:33:16;0.80;;;0.80;;
15944;SDS011;30172;48.832;8.732;2023-03-20T01:35:43;1.27;;;1.00;;
15944;SDS011;30172;48.832;8.732;2023-03-20T01:38:12;1.30;;;1.20;;
15944;SDS011;30172;48.832;8.732;2023-03-20T01:40:45;1.20;;;1.00;;
15944;SDS011;30172;48.832;8.732;2023-03-20T01:43:14;1.30;;;0.93;;
15944;SDS011;30172;48.832;8.732;2023-03-20T01:45:53;1.17;;;1.07;;
15944;SDS011;30172;48.832;8.732;2023-03-20T01:48:21;1.97;;;1.13;;
15944;SDS011;30172;48.832;8.732;2023-03-20T01:50:47;2.67;;;1.40;;
15944;SDS011;30172;48.832;8.732;2023-03-20T01:53:18;1.30;;;1.20;;
15944;SDS011;30172;48.832;8.732;2023-03-20T01:55:46;1.50;;;1.20;;
15944;SDS011;30172;48.832;8.732;2023-03-20T01:58:17;2.47;;;1.33;;
15944;SDS011;30172;48.832;8.732;2023-03-20T02:00:45;1.77;;;1.67;;
15944;SDS011;30172;48.832;8.732;2023-03-20T02:03:12;2.17;;;1.30;;
15944;SDS011;30172;48.832;8.732;2023-03-20T02:05:37;1.70;;;1.60;;
15944;SDS011;30172;48.832;8.732;2023-03-20T02:08:12;2.23;;;1.30;;
15944;SDS011;30172;48.832;8.732;2023-03-20T02:10:43;1.47;;;1.30;;
15944;SDS011;30172;48.832;8.732;2023-03-20T02:13:09;1.60;;;1.50;;
15944;SDS011;30172;48.832;8.732;2023-03-20T02:15:35;1.70;;;1.47;;
15944;SDS011;30172;48.832;8.732;2023-03-20T02:18:00;1.73;;;1.60;;
15944;SDS011;30172;48.832;8.732;2023-03-20T02:26:11;2.80;;;1.40;;
15944;SDS011;30172;48.832;8.732;2023-03-20T02:28:59;1.27;;;1.17;;
15944;SDS011;30172;48.832;8.732;2023-03-20T02:38:07;1.60;;;1.50;;
15944;SDS011;30172;48.832;8.732;2023-03-20T02:46:28;2.03;;;1.60;;
15944;SDS011;30172;48.832;8.732;2023-03-20T02:51:30;1.97;;;1.73;;
15944;SDS011;30172;48.832;8.732;2023-03-20T02:54:07;3.27;;;1.50;;
15944;SDS011;30172;48.832;8.732;2023-03-20T02:56:44;1.70;;;1.57;;
15944;SDS011;30172;48.832;8.732;2023-03-20T02:59:18;2.80;;;2.03;;
15944;SDS011;30172;48.832;8.732;2023-03-20T03:01:51;1.60;;;1.50;;
15944;SDS011;30172;48.832;8.732;2023-03-20T03:04:19;2.13;;;1.50;;
15944;SDS011;30172;48.832;8.732;2023-03-20T03:06:48;1.70;;;1.60;;
15944;SDS011;30172;48.832;8.732;2023-03-20T03:09:19;1.70;;;1.47;;
15944;SDS011;30172;48.832;8.732;2023-03-20T03:12:01;1.80;;;1.63;;
15944;SDS011;30172;48.832;8.732;2023-03-20T03:14:35;2.07;;;1.73;;
15944;SDS011;30172;48.832;8.732;2023-03-20T03:17:06;1.80;;;1.50;;
15944;SDS011;30172;48.832;8.732;2023-03-20T03:19:33;1.60;;;1.50;;
15944;SDS011;30172;48.832;8.732;2023-03-20T03:22:00;1.83;;;1.60;;
15944;SDS011;30172;48.832;8.732;2023-03-20T03:26:56;3.00;;;1.80;;
15944;SDS011;30172;48.832;8.732;2023-03-20T03:29:23;2.00;;;1.60;;
15944;SDS011;30172;48.832;8.732;2023-03-20T03:31:50;1.97;;;1.87;;
15944;SDS011;30172;48.832;8.732;2023-03-20T03:34:16;1.70;;;1.60;;
15944;SDS011;30172;48.832;8.732;2023-03-20T03:36:48;1.70;;;1.40;;
15944;SDS011;30172;48.832;8.732;2023-03-20T03:39:23;1.60;;;1.47;;
15944;SDS011;30172;48.832;8.732;2023-03-20T03:47:38;2.43;;;1.90;;
15944;SDS011;30172;48.832;8.732;2023-03-20T03:50:10;2.60;;;2.00;;
15944;SDS011;30172;48.832;8.732;2023-03-20T03:52:52;1.87;;;1.77;;
15944;SDS011;30172;48.832;8.732;2023-03-20T03:55:19;4.33;;;1.93;;
15944;SDS011;30172;48.832;8.732;2023-03-20T03:57:57;2.77;;;2.13;;
15944;SDS011;30172;48.832;8.732;2023-03-20T04:00:25;3.50;;;2.60;;
15944;SDS011;30172;48.832;8.732;2023-03-20T04:02:53;2.60;;;2.37;;
15944;SDS011;30172;48.832;8.732;2023-03-20T04:05:20;2.77;;;2.20;;
15944;SDS011;30172;48.832;8.732;2023-03-20T04:07:47;4.47;;;3.00;;
15944;SDS011;30172;48.832;8.732;2023-03-20T04:10:17;3.17;;;2.80;;
15944;SDS011;30172;48.832;8.732;2023-03-20T04:12:43;2.80;;;2.60;;
15944;SDS011;30172;48.832;8.732;2023-03-20T04:15:09;3.13;;;2.40;;
15944;SDS011;30172;48.832;8.732;2023-03-20T04:17:35;2.90;;;2.60;;
15944;SDS011;30172;48.832;8.732;2023-03-20T04:20:01;3.07;;;2.50;;
15944;SDS011;30172;48.832;8.732;2023-03-20T04:22:27;3.10;;;2.00;;
15944;SDS011;30172;48.832;8.732;2023-03-20T04:24:52;2.60;;;2.40;;
15944;SDS011;30172;48.832;8.732;2023-03-20T04:27:18;2.73;;;2.30;;
15944;SDS011;30172;48.832;8.732;2023-03-20T04:29:43;3.77;;;2.00;;
15944;SDS011;30172;48.832;8.732;2023-03-20T04:32:09;2.40;;;2.20;;
15944;SDS011;30172;48.832;8.732;2023-03-20T04:34:34;2.53;;;2.00;;
15944;SDS011;30172;48.832;8.732;2023-03-20T04:37:00;2.37;;;2.17;;
15944;SDS011;30172;48.832;8.732;2023-03-20T04:39:25;2.93;;;2.00;;
15944;SDS011;30172;48.832;8.732;2023-03-20T04:41:51;2.53;;;2.17;;
15944;SDS011;30172;48.832;8.732;2023-03-20T04:44:16;2.40;;;2.10;;
15944;SDS011;30172;48.832;8.732;2023-03-20T04:46:42;4.20;;;2.00;;
15944;SDS011;30172;48.832;8.732;2023-03-20T04:49:07;2.20;;;1.87;;
15944;SDS011;30172;48.832;8.732;2023-03-20T04:51:32;2.53;;;1.80;;
15944;SDS011;30172;48.832;8.732;2023-03-20T04:53:58;2.10;;;1.67;;
15944;SDS011;30172;48.832;8.732;2023-03-20T04:56:23;2.10;;;1.90;;
15944;SDS011;30172;48.832;8.732;2023-03-20T04:58:48;2.50;;;2.00;;
15944;SDS011;30172;48.832;8.732;2023-03-20T05:01:13;2.40;;;2.20;;
15944;SDS011;30172;48.832;8.732;2023-03-20T05:03:39;2.27;;;1.93;;
15944;SDS011;30172;48.832;8.732;2023-03-20T05:06:04;2.30;;;2.10;;
15944;SDS011;30172;48.832;8.732;2023-03-20T05:08:30;3.13;;;2.00;;
15944;SDS011;30172;48.832;8.732;2023-03-20T05:10:55;3.67;;;1.97;;
15944;SDS011;30172;48.832;8.732;2023-03-20T05:13:21;2.13;;;1.93;;
15944;SDS011;30172;48.832;8.732;2023-03-20T05:15:46;2.13;;;1.93;;
15944;SDS011;30172;48.832;8.732;2023-03-20T05:18:12;2.23;;;1.70;;
15944;SDS011;30172;48.832;8.732;2023-03-20T05:20:37;2.47;;;2.07;;
15944;SDS011;30172;48.832;8.732;2023-03-20T05:23:02;1.77;;;1.67;;
15944;SDS011;30172;48.832;8.732;2023-03-20T05:25:28;2.27;;;2.00;;
15944;SDS011;30172;48.832;8.732;2023-03-20T05:27:53;2.50;;;2.30;;
15944;SDS011;30172;48.832;8.732;2023-03-20T05:30:18;2.30;;;2.10;;
15944;SDS011;30172;48.832;8.732;2023-03-20T05:32:44;2.53;;;2.20;;
15944;SDS011;30172;48.832;8.732;2023-03-20T05:35:10;2.40;;;2.20;;
15944;SDS011;30172;48.832;8.732;2023-03-20T05:37:36;2.30;;;2.10;;
15944;SDS011;30172;48.832;8.732;2023-03-20T05:40:02;2.20;;;2.00;;
15944;SDS011;30172;48.832;8.732;2023-03-20T05:42:28;3.03;;;2.33;;
15944;SDS011;30172;48.832;8.732;2023-03-20T05:44:53;2.50;;;2.20;;
15944;SDS011;30172;48.832;8.732;2023-03-20T05:47:19;2.70;;;2.13;;
15944;SDS011;30172;48.832;8.732;2023-03-20T05:49:44;2.43;;;2.23;;
15944;SDS011;30172;48.832;8.732;2023-03-20T05:52:09;2.77;;;2.10;;
15944;SDS011;30172;48.832;8.732;2023-03-20T05:54:35;2.70;;;2.50;;
15944;SDS011;30172;48.832;8.732;2023-03-20T05:57:00;4.90;;;3.60;;
15944;SDS011;30172;48.832;8.732;2023-03-20T05:59:25;4.20;;;3.30;;
15944;SDS011;30172;48.832;8.732;2023-03-20T06:01:51;3.30;;;3.00;;
15944;SDS011;30172;48.832;8.732;2023-03-20T06:04:16;10.53;;;7.10;;
15944;SDS011;30172;48.832;8.732;2023-03-20T06:06:41;10.67;;;7.17;;
15944;SDS011;30172;48.832;8.732;2023-03-20T06:09:07;14.90;;;10.87;;
15944;SDS011;30172;48.832;8.732;2023-03-20T06:11:32;8.43;;;6.33;;
15944;SDS011;30172;48.832;8.732;2023-03-20T06:13:57;7.57;;;5.60;;
15944;SDS011;30172;48.832;8.732;2023-03-20T06:16:23;6.33;;;5.00;;
15944;SDS011;30172;48.832;8.732;2023-03-20T06:18:48;6.73;;;5.10;;
15944;SDS011;30172;48.832;8.732;2023-03-20T06:21:14;4.70;;;3.93;;
15944;SDS011;30172;48.832;8.732;2023-03-20T06:23:39;2.63;;;2.10;;
15944;SDS011;30172;48.832;8.732;2023-03-20T06:26:05;2.53;;;2.27;;
15944;SDS011;30172;48.832;8.732;2023-03-20T06:28:30;2.50;;;2.30;;
15944;SDS011;30172;48.832;8.732;2023-03-20T06:30:56;2.97;;;2.30;;
15944;SDS011;30172;48.832;8.732;2023-03-20T06:33:21;2.30;;;2.10;;
15944;SDS011;30172;48.832;8.732;2023-03-20T06:35:46;2.93;;;2.30;;
15944;SDS011;30172;48.832;8.732;2023-03-20T06:38:12;2.40;;;2.20;;
15944;SDS011;30172;48.832;8.732;2023-03-20T06:40:38;2.77;;;2.13;;
15944;SDS011;30172;48.832;8.732;2023-03-20T06:43:03;2.43;;;2.23;;
15944;SDS011;30172;48.832;8.732;2023-03-20T06:45:29;2.77;;;1.90;;
15944;SDS011;30172;48.832;8.732;2023-03-20T06:47:54;2.70;;;1.90;;
15944;SDS011;30172;48.832;8.732;2023-03-20T06:50:19;1.93;;;1.83;;
15944;SDS011;30172;48.832;8.732;2023-03-20T06:52:45;1.90;;;1.80;;
15944;SDS011;30172;48.832;8.732;2023-03-20T06:55:10;1.73;;;1.50;;
15944;SDS011;30172;48.832;8.732;2023-03-20T06:57:36;1.50;;;1.40;;
15944;SDS011;30172;48.832;8.732;2023-03-20T07:00:02;1.80;;;1.70;;
15944;SDS011;30172;48.832;8.732;2023-03-20T07:02:29;2.10;;;1.50;;
15944;SDS011;30172;48.832;8.732;2023-03-20T07:04:54;3.23;;;1.80;;
15944;SDS011;30172;48.832;8.732;2023-03-20T07:07:20;2.00;;;1.80;;
15944;SDS011;30172;48.832;8.732;2023-03-20T07:09:45;2.83;;;2.03;;
15944;SDS011;30172;48.832;8.732;2023-03-20T07:12:11;2.70;;;2.10;;
15944;SDS011;30172;48.832;8.732;2023-03-20T07:14:38;3.83;;;3.53;;
15944;SDS011;30172;48.832;8.732;2023-03-20T07:17:05;4.33;;;3.40;;
15944;SDS011;30172;48.832;8.732;2023-03-20T07:19:31;3.40;;;3.10;;
15944;SDS011;30172;48.832;8.732;2023-03-20T07:21:57;3.30;;;3.00;;
15944;SDS011;30172;48.832;8.732;2023-03-20T07:24:25;4.27;;;3.60;;
15944;SDS011;30172;48.832;8.732;2023-03-20T07:26:51;3.60;;;3.30;;
15944;SDS011;30172;48.832;8.732;2023-03-20T07:29:18;4.93;;;3.03;;
15944;SDS011;30172;48.832;8.732;2023-03-20T07:31:44;4.03;;;3.63;;
15944;SDS011;30172;48.832;8.732;2023-03-20T07:34:09;3.57;;;3.00;;
15944;SDS011;30172;48.832;8.732;2023-03-20T07:36:36;4.70;;;2.83;;
15944;SDS011;30172;48.832;8.732;2023-03-20T07:39:01;4.03;;;2.87;;
15944;SDS011;30172;48.832;8.732;2023-03-20T07:41:26;4.60;;;3.40;;
15944;SDS011;30172;48.832;8.732;2023-03-20T07:43:52;4.00;;;3.60;;
15944;SDS011;30172;48.832;8.732;2023-03-20T07:46:17;3.40;;;2.87;;
15944;SDS011;30172;48.832;8.732;2023-03-20T07:48:42;3.80;;;3.37;;
15944;SDS011;30172;48.832;8.732;2023-03-20T07:51:08;3.77;;;3.40;;
15944;SDS011;30172;48.832;8.732;2023-03-20T07:53:33;6.90;;;3.90;;
15944;SDS011;30172;48.832;8.732;2023-03-20T07:55:58;4.73;;;3.80;;
15944;SDS011;30172;48.832;8.732;2023-03-20T07:58:24;3.50;;;3.10;;
15944;SDS011;30172;48.832;8.732;2023-03-20T08:00:49;3.67;;;3.37;;
15944;SDS011;30172;48.832;8.732;2023-03-20T08:03:14;4.33;;;3.93;;
15944;SDS011;30172;48.832;8.732;2023-03-20T08:05:40;4.57;;;4.07;;
15944;SDS011;30172;48.832;8.732;2023-03-20T08:08:06;4.30;;;3.70;;
15944;SDS011;30172;48.832;8.732;2023-03-20T08:10:33;4.37;;;3.97;;
15944;SDS011;30172;48.832;8.732;2023-03-20T08:12:58;4.27;;;3.87;;
15944;SDS011;30172;48.832;8.732;2023-03-20T08:15:23;5.20;;;3.80;;
15944;SDS011;30172;48.832;8.732;2023-03-20T08:17:49;4.87;;;4.40;;
15944;SDS011;30172;48.832;8.732;2023-03-20T08:20:14;4.93;;;4.17;;
15944;SDS011;30172;48.832;8.732;2023-03-20T08:22:40;4.43;;;3.80;;
15944;SDS011;30172;48.832;8.732;2023-03-20T08:25:07;5.83;;;4.03;;
15944;SDS011;30172;48.832;8.732;2023-03-20T08:27:33;4.50;;;4.07;;
15944;SDS011;30172;48.832;8.732;2023-03-20T08:29:59;8.10;;;4.60;;
15944;SDS011;30172;48.832;8.732;2023-03-20T08:32:25;4.50;;;3.97;;
15944;SDS011;30172;48.832;8.732;2023-03-20T08:34:50;4.67;;;4.13;;
15944;SDS011;30172;48.832;8.732;2023-03-20T08:37:16;5.07;;;4.33;;
15944;SDS011;30172;48.832;8.732;2023-03-20T08:39:41;4.13;;;3.73;;
15944;SDS011;30172;48.832;8.732;2023-03-20T08:42:14;5.27;;;4.20;;
15944;SDS011;30172;48.832;8.732;2023-03-20T08:44:39;5.47;;;3.87;;
15944;SDS011;30172;48.832;8.732;2023-03-20T08:47:05;5.00;;;4.03;;
15944;SDS011;30172;48.832;8.732;2023-03-20T08:49:31;5.20;;;4.10;;
15944;SDS011;30172;48.832;8.732;2023-03-20T08:51:58;4.60;;;3.80;;
15944;SDS011;30172;48.832;8.732;2023-03-20T08:54:23;5.80;;;4.17;;
15944;SDS011;30172;48.832;8.732;2023-03-20T08:56:49;4.80;;;3.70;;
15944;SDS011;30172;48.832;8.732;2023-03-20T08:59:14;4.13;;;3.37;;
15944;SDS011;30172;48.832;8.732;2023-03-20T09:01:40;5.20;;;3.33;;
15944;SDS011;30172;48.832;8.732;2023-03-20T09:04:05;4.10;;;3.70;;
15944;SDS011;30172;48.832;8.732;2023-03-20T09:06:31;5.63;;;3.90;;
15944;SDS011;30172;48.832;8.732;2023-03-20T09:09:00;4.77;;;3.63;;
15944;SDS011;30172;48.832;8.732;2023-03-20T09:11:25;4.00;;;3.60;;
15944;SDS011;30172;48.832;8.732;2023-03-20T09:13:52;4.97;;;3.90;;
15944;SDS011;30172;48.832;8.732;2023-03-20T09:16:17;4.10;;;3.33;;
15944;SDS011;30172;48.832;8.732;2023-03-20T09:18:42;4.07;;;3.40;;
15944;SDS011;30172;48.832;8.732;2023-03-20T09:21:08;4.17;;;3.30;;
15944;SDS011;30172;48.832;8.732;2023-03-20T09:23:33;3.97;;;3.47;;
15944;SDS011;30172;48.832;8.732;2023-03-20T09:26:00;4.37;;;3.70;;
15944;SDS011;30172;48.832;8.732;2023-03-20T09:28:25;4.20;;;3.03;;
15944;SDS011;30172;48.832;8.732;2023-03-20T09:30:57;3.70;;;3.30;;
15944;SDS011;30172;48.832;8.732;2023-03-20T09:33:23;4.17;;;3.77;;
15944;SDS011;30172;48.832;8.732;2023-03-20T09:35:49;4.40;;;3.53;;
15944;SDS011;30172;48.832;8.732;2023-03-20T09:38:14;3.33;;;3.00;;
15944;SDS011;30172;48.832;8.732;2023-03-20T09:40:53;4.27;;;3.20;;
15944;SDS011;30172;48.832;8.732;2023-03-20T09:51:40;4.10;;;3.30;;
15944;SDS011;30172;48.832;8.732;2023-03-20T09:56:49;4.37;;;3.20;;
15944;SDS011;30172;48.832;8.732;2023-03-20T09:59:15;4.97;;;3.50;;
15944;SDS011;30172;48.832;8.732;2023-03-20T10:04:27;5.30;;;3.40;;
15944;SDS011;30172;48.832;8.732;2023-03-20T10:06:53;6.73;;;3.83;;
15944;SDS011;30172;48.832;8.732;2023-03-20T10:09:23;6.53;;;3.73;;
15944;SDS011;30172;48.832;8.732;2023-03-20T10:12:02;3.70;;;3.10;;
15944;SDS011;30172;48.832;8.732;2023-03-20T10:14:57;5.43;;;3.40;;
15944;SDS011;30172;48.832;8.732;2023-03-20T10:20:21;4.23;;;3.07;;
15944;SDS011;30172;48.832;8.732;2023-03-20T10:22:57;5.50;;;3.30;;
15944;SDS011;30172;48.832;8.732;2023-03-20T10:25:27;3.97;;;3.43;;
15944;SDS011;30172;48.832;8.732;2023-03-20T10:27:58;5.03;;;3.93;;
15944;SDS011;30172;48.832;8.732;2023-03-20T10:41:52;6.73;;;4.20;;
15944;SDS011;30172;48.832;8.732;2023-03-20T10:44:26;4.37;;;3.40;;
15944;SDS011;30172;48.832;8.732;2023-03-20T10:46:54;4.13;;;3.37;;
15944;SDS011;30172;48.832;8.732;2023-03-20T10:52:03;4.23;;;3.60;;
15944;SDS011;30172;48.832;8.732;2023-03-20T10:54:36;4.97;;;3.57;;
15944;SDS011;30172;48.832;8.732;2023-03-20T10:57:05;4.77;;;3.37;;
15944;SDS011;30172;48.832;8.732;2023-03-20T10:59:40;4.33;;;3.67;;
15944;SDS011;30172;48.832;8.732;2023-03-20T11:02:14;4.73;;;3.97;;
15944;SDS011;30172;48.832;8.732;2023-03-20T11:04:41;5.70;;;4.60;;
15944;SDS011;30172;48.832;8.732;2023-03-20T11:07:18;6.60;;;3.87;;
15944;SDS011;30172;48.832;8.732;2023-03-20T11:12:38;7.90;;;4.23;;
15944;SDS011;30172;48.832;8.732;2023-03-20T11:15:18;4.50;;;4.03;;
15944;SDS011;30172;48.832;8.732;2023-03-20T11:18:09;4.33;;;3.20;;
15944;SDS011;30172;48.832;8.732;2023-03-20T11:20:39;5.47;;;3.23;;
15944;SDS011;30172;48.832;8.732;2023-03-20T11:23:10;5.27;;;3.33;;
15944;SDS011;30172;48.832;8.732;2023-03-20T11:26:02;3.40;;;2.93;;
15944;SDS011;30172;48.832;8.732;2023-03-20T11:28:37;4.23;;;3.13;;
15944;SDS011;30172;48.832;8.732;2023-03-20T11:31:05;5.50;;;3.40;;
15944;SDS011;30172;48.832;8.732;2023-03-20T11:33:42;5.83;;;3.93;;
15944;SDS011;30172;48.832;8.732;2023-03-20T11:36:28;6.37;;;5.50;;
15944;SDS011;30172;48.832;8.732;2023-03-20T11:41:52;4.57;;;3.50;;
15944;SDS011;30172;48.832;8.732;2023-03-20T11:46:55;3.57;;;2.87;;
15944;SDS011;30172;48.832;8.732;2023-03-20T11:49:25;3.93;;;3.17;;
15944;SDS011;30172;48.832;8.732;2023-03-20T11:52:01;4.87;;;3.03;;
15944;SDS011;30172;48.832;8.732;2023-03-20T11:54:36;4.03;;;3.13;;
15944;SDS011;30172;48.832;8.732;2023-03-20T11:57:02;2.50;;;2.30;;
15944;SDS011;30172;48.832;8.732;2023-03-20T11:59:31;3.43;;;2.63;;
15944;SDS011;30172;48.832;8.732;2023-03-20T12:01:58;4.30;;;2.87;;
15944;SDS011;30172;48.832;8.732;2023-03-20T12:04:34;3.00;;;2.70;;
15944;SDS011;30172;48.832;8.732;2023-03-20T12:10:02;2.90;;;2.20;;
15944;SDS011;30172;48.832;8.732;2023-03-20T12:12:46;2.47;;;1.97;;
15944;SDS011;30172;48.832;8.732;2023-03-20T12:17:45;2.73;;;1.80;;
15944;SDS011;30172;48.832;8.732;2023-03-20T12:20:35;2.10;;;1.90;;
15944;SDS011;30172;48.832;8.732;2023-03-20T12:28:21;2.57;;;1.93;;
15944;SDS011;30172;48.832;8.732;2023-03-20T12:30:53;2.93;;;2.43;;
15944;SDS011;30172;48.832;8.732;2023-03-20T12:33:30;2.70;;;2.40;;
15944;SDS011;30172;48.832;8.732;2023-03-20T12:36:05;4.70;;;2.10;;
15944;SDS011;30172;48.832;8.732;2023-03-20T12:38:53;2.23;;;1.80;;
15944;SDS011;30172;48.832;8.732;2023-03-20T12:41:29;2.90;;;2.30;;
15944;SDS011;30172;48.832;8.732;2023-03-20T12:46:54;2.20;;;2.00;;
15944;SDS011;30172;48.832;8.732;2023-03-20T12:52:28;1.93;;;1.60;;
15944;SDS011;30172;48.832;8.732;2023-03-20T13:00:50;2.87;;;2.33;;
15944;SDS011;30172;48.832;8.732;2023-03-20T13:03:43;2.20;;;2.00;;
15944;SDS011;30172;48.832;8.732;2023-03-20T13:06:18;2.60;;;1.80;;
15944;SDS011;30172;48.832;8.732;2023-03-20T13:17:26;2.80;;;1.60;;
15944;SDS011;30172;48.832;8.732;2023-03-20T13:25:35;2.23;;;2.03;;
15944;SDS011;30172;48.832;8.732;2023-03-20T13:28:13;2.67;;;2.20;;
15944;SDS011;30172;48.832;8.732;2023-03-20T13:34:04;2.50;;;2.30;;
15944;SDS011;30172;48.832;8.732;2023-03-20T13:39:36;2.43;;;2.13;;
15944;SDS011;30172;48.832;8.732;2023-03-20T13:42:22;5.03;;;2.30;;
15944;SDS011;30172;48.832;8.732;2023-03-20T13:44:54;2.37;;;2.17;;
15944;SDS011;30172;48.832;8.732;2023-03-20T13:47:25;2.07;;;1.80;;
15944;SDS011;30172;48.832;8.732;2023-03-20T13:52:22;2.53;;;1.80;;
15944;SDS011;30172;48.832;8.732;2023-03-20T13:58:05;4.30;;;1.97;;
15944;SDS011;30172;48.832;8.732;2023-03-20T14:00:48;2.60;;;1.60;;
15944;SDS011;30172;48.832;8.732;2023-03-20T14:03:52;2.77;;;1.90;;
15944;SDS011;30172;48.832;8.732;2023-03-20T14:08:52;3.17;;;2.20;;
15944;SDS011;30172;48.832;8.732;2023-03-20T14:13:48;2.57;;;2.20;;
15944;SDS011;30172;48.832;8.732;2023-03-20T14:16:16;3.03;;;2.60;;
15944;SDS011;30172;48.832;8.732;2023-03-20T14:18:44;3.93;;;2.80;;
15944;SDS011;30172;48.832;8.732;2023-03-20T14:21:22;3.27;;;2.70;;
15944;SDS011;30172;48.832;8.732;2023-03-20T14:23:49;3.63;;;3.17;;
15944;SDS011;30172;48.832;8.732;2023-03-20T14:26:22;3.17;;;2.90;;
15944;SDS011;30172;48.832;8.732;2023-03-20T14:29:00;3.10;;;2.77;;
15944;SDS011;30172;48.832;8.732;2023-03-20T14:31:43;3.07;;;2.57;;
15944;SDS011;30172;48.832;8.732;2023-03-20T14:36:58;3.50;;;2.63;;
15944;SDS011;30172;48.832;8.732;2023-03-20T14:39:42;4.83;;;3.03;;
15944;SDS011;30172;48.832;8.732;2023-03-20T14:42:18;4.33;;;2.90;;
15944;SDS011;30172;48.832;8.732;2023-03-20T14:44:50;3.10;;;2.67;;
15944;SDS011;30172;48.832;8.732;2023-03-20T14:47:28;3.00;;;2.50;;
15944;SDS011;30172;48.832;8.732;2023-03-20T14:50:03;2.63;;;2.43;;
15944;SDS011;30172;48.832;8.732;2023-03-20T14:56:19;5.87;;;3.80;;
15944;SDS011;30172;48.832;8.732;2023-03-20T15:01:04;4.67;;;3.33;;
15944;SDS011;30172;48.832;8.732;2023-03-20T15:03:30;4.50;;;3.03;;
15944;SDS011;30172;48.832;8.732;2023-03-20T15:05:56;4.03;;;3.43;;
15944;SDS011;30172;48.832;8.732;2023-03-20T15:08:24;4.03;;;2.80;;
15944;SDS011;30172;48.832;8.732;2023-03-20T15:10:54;3.17;;;2.60;;
15944;SDS011;30172;48.832;8.732;2023-03-20T15:13:21;4.10;;;2.90;;
15944;SDS011;30172;48.832;8.732;2023-03-20T15:16:05;2.97;;;2.67;;
15944;SDS011;30172;48.832;8.732;2023-03-20T15:18:35;3.23;;;2.90;;
15944;SDS011;30172;48.832;8.732;2023-03-20T15:23:43;4.43;;;3.03;;
15944;SDS011;30172;48.832;8.732;2023-03-20T15:26:10;4.10;;;3.10;;
15944;SDS011;30172;48.832;8.732;2023-03-20T15:28:37;4.33;;;3.20;;
15944;SDS011;30172;48.832;8.732;2023-03-20T15:31:03;4.33;;;2.80;;
15944;SDS011;30172;48.832;8.732;2023-03-20T15:33:31;3.77;;;2.70;;
15944;SDS011;30172;48.832;8.732;2023-03-20T15:36:05;3.50;;;2.90;;
15944;SDS011;30172;48.832;8.732;2023-03-20T15:38:34;3.03;;;2.73;;
15944;SDS011;30172;48.832;8.732;2023-03-20T15:41:04;3.53;;;3.23;;
15944;SDS011;30172;48.832;8.732;2023-03-20T15:43:31;5.40;;;4.07;;
15944;SDS011;30172;48.832;8.732;2023-03-20T15:45:56;5.40;;;4.07;;
15944;SDS011;30172;48.832;8.732;2023-03-20T15:48:23;3.87;;;2.53;;
15944;SDS011;30172;48.832;8.732;2023-03-20T15:50:57;3.80;;;3.17;;
15944;SDS011;30172;48.832;8.732;2023-03-20T15:53:33;4.80;;;3.10;;
15944;SDS011;30172;48.832;8.732;2023-03-20T15:56:07;3.80;;;3.20;;
15944;SDS011;30172;48.832;8.732;2023-03-20T15:58:35;4.17;;;3.33;;
15944;SDS011;30172;48.832;8.732;2023-03-20T16:01:01;6.33;;;3.40;;
15944;SDS011;30172;48.832;8.732;2023-03-20T16:03:28;3.97;;;3.57;;
15944;SDS011;30172;48.832;8.732;2023-03-20T16:05:54;6.97;;;5.43;;
15944;SDS011;30172;48.832;8.732;2023-03-20T16:08:24;5.97;;;5.40;;
15944;SDS011;30172;48.832;8.732;2023-03-20T16:10:58;11.53;;;8.50;;
15944;SDS011;30172;48.832;8.732;2023-03-20T16:13:30;6.53;;;5.93;;
15944;SDS011;30172;48.832;8.732;2023-03-20T16:15:59;4.20;;;3.70;;
15944;SDS011;30172;48.832;8.732;2023-03-20T16:18:26;5.67;;;5.03;;
15944;SDS011;30172;48.832;8.732;2023-03-20T16:20:56;4.53;;;4.13;;
15944;SDS011;30172;48.832;8.732;2023-03-20T16:23:30;6.73;;;3.17;;
15944;SDS011;30172;48.832;8.732;2023-03-20T16:25:56;5.40;;;2.83;;
15944;SDS011;30172;48.832;8.732;2023-03-20T16:28:24;5.47;;;3.17;;
15944;SDS011;30172;48.832;8.732;2023-03-20T16:30:50;2.47;;;2.27;;
15944;SDS011;30172;48.832;8.732;2023-03-20T16:33:16;4.33;;;2.47;;
15944;SDS011;30172;48.832;8.732;2023-03-20T16:35:42;3.70;;;2.57;;
15944;SDS011;30172;48.832;8.732;2023-03-20T16:38:21;3.30;;;2.90;;
15944;SDS011;30172;48.832;8.732;2023-03-20T16:40:51;4.53;;;2.73;;
15944;SDS011;30172;48.832;8.732;2023-03-20T16:43:24;5.63;;;3.13;;
15944;SDS011;30172;48.832;8.732;2023-03-20T16:45:54;3.90;;;3.30;;
15944;SDS011;30172;48.832;8.732;2023-03-20T16:50:56;5.07;;;2.90;;
15944;SDS011;30172;48.832;8.732;2023-03-20T16:53:23;3.33;;;2.70;;
15944;SDS011;30172;48.832;8.732;2023-03-20T16:55:52;4.83;;;3.10;;
15944;SDS011;30172;48.832;8.732;2023-03-20T16:58:21;4.43;;;3.00;;
15944;SDS011;30172;48.832;8.732;2023-03-20T17:03:18;3.27;;;2.80;;
15944;SDS011;30172;48.832;8.732;2023-03-20T17:05:52;4.87;;;4.00;;
15944;SDS011;30172;48.832;8.732;2023-03-20T17:08:36;7.23;;;5.40;;
15944;SDS011;30172;48.832;8.732;2023-03-20T17:11:09;4.20;;;3.80;;
15944;SDS011;30172;48.832;8.732;2023-03-20T17:13:39;4.23;;;3.83;;
15944;SDS011;30172;48.832;8.732;2023-03-20T17:16:05;5.40;;;4.33;;
15944;SDS011;30172;48.832;8.732;2023-03-20T17:18:31;4.87;;;3.83;;